Time;durP1;ratioP1;P1;durP2;ratioP2;P2;SDS_P1;SDS_P2;PMS_P1;PMS_P2;Temp;Humidity;BMP_temperature;BMP_pressure;BME280_temperature;BME280_humidity;BME280_pressure;Samples;Min_cycle;Max_cycle;Signal;HPM_P1;HPM_P2
2022/07/06 00:02:03;;;;;;;4.72;2.08;;;13.10;99.90;;;;;;5010031;28;20042;-66
2022/07/06 00:04:28;;;;;;;4.38;2.08;;;13.00;99.90;;;;;;5009673;28;20030;-66
2022/07/06 00:06:54;;;;;;;3.50;2.03;;;;;;;;;;5003426;28;20068;-66
2022/07/06 00:09:20;;;;;;;2.63;1.77;;;13.00;99.90;;;;;;5009854;28;20026;-67
2022/07/06 00:11:45;;;;;;;3.78;1.65;;;13.40;99.90;;;;;;5009908;28;20025;-66
2022/07/06 00:14:11;;;;;;;3.85;2.17;;;13.00;99.90;;;;;;5009876;28;20567;-66
2022/07/06 00:16:37;;;;;;;3.38;2.00;;;13.00;99.90;;;;;;5008920;28;20494;-67
2022/07/06 00:19:02;;;;;;;3.25;2.22;;;13.00;99.90;;;;;;5009158;28;20502;-66
2022/07/06 00:21:28;;;;;;;3.15;2.67;;;13.00;99.90;;;;;;5006435;28;20022;-66
2022/07/06 00:23:53;;;;;;;3.47;2.42;;;13.00;99.90;;;;;;5009398;28;20029;-66
2022/07/06 00:26:19;;;;;;;4.80;2.47;;;12.90;99.90;;;;;;5009678;28;20022;-66
2022/07/06 00:28:45;;;;;;;5.70;2.80;;;12.90;99.90;;;;;;5009575;28;20128;-66
2022/07/06 00:31:11;;;;;;;4.93;2.30;;;12.90;99.90;;;;;;5009698;28;20111;-67
2022/07/06 00:33:36;;;;;;;2.88;2.63;;;12.80;99.90;;;;;;5009079;28;20348;-66
2022/07/06 00:36:02;;;;;;;3.50;2.00;;;;;;;;;;5009181;28;20479;-66
2022/07/06 00:38:28;;;;;;;3.63;2.15;;;12.80;99.90;;;;;;5009556;28;20117;-66
2022/07/06 00:40:54;;;;;;;4.07;2.17;;;;;;;;;;5009281;28;20451;-66
2022/07/06 00:43:20;;;;;;;3.78;1.98;;;12.80;99.90;;;;;;5006193;28;20472;-66
2022/07/06 00:45:46;;;;;;;5.63;2.10;;;12.80;99.90;;;;;;5009179;28;20136;-66
2022/07/06 00:48:12;;;;;;;2.97;2.05;;;12.70;99.90;;;;;;5009052;28;20341;-69
2022/07/06 00:50:37;;;;;;;4.10;1.90;;;12.70;99.90;;;;;;5005726;28;20568;-66
2022/07/06 00:53:05;;;;;;;3.47;2.22;;;12.70;99.90;;;;;;5009102;28;20088;-66
2022/07/06 00:55:34;;;;;;;2.97;2.05;;;12.40;99.90;;;;;;5006376;28;20033;-66
2022/07/06 00:58:02;;;;;;;6.13;2.53;;;12.60;99.90;;;;;;5005717;28;20079;-67
2022/07/06 01:00:28;;;;;;;5.93;2.92;;;12.60;99.90;;;;;;5006393;28;20034;-67
2022/07/06 01:02:54;;;;;;;4.50;2.40;;;12.40;99.90;;;;;;5008151;28;20042;-66
2022/07/06 01:05:20;;;;;;;4.97;1.83;;;12.60;99.90;;;;;;5008988;28;20414;-66
2022/07/06 01:07:47;;;;;;;3.60;1.85;;;12.60;99.90;;;;;;5008604;28;20105;-66
2022/07/06 01:10:15;;;;;;;5.90;2.00;;;12.60;99.90;;;;;;5009076;28;20109;-67
2022/07/06 01:12:42;;;;;;;4.10;2.10;;;12.50;99.90;;;;;;5007797;28;20479;-66
2022/07/06 01:15:16;;;;;;;6.57;2.92;;;12.50;99.90;;;;;;5009026;28;20107;-66
2022/07/06 01:17:42;;;;;;;3.88;2.05;;;12.50;99.90;;;;;;5005243;28;20032;-66
2022/07/06 01:20:20;;;;;;;3.70;2.00;;;12.50;99.90;;;;;;5008621;28;20057;-66
2022/07/06 01:22:47;;;;;;;2.90;1.80;;;12.20;99.90;;;;;;5008376;28;20044;-66
2022/07/06 01:25:13;;;;;;;4.95;1.77;;;12.40;99.90;;;;;;5006096;28;20022;-66
2022/07/06 01:27:41;;;;;;;5.32;2.13;;;12.40;99.90;;;;;;5008748;28;20088;-66
2022/07/06 01:30:16;;;;;;;4.70;2.40;;;12.30;99.90;;;;;;5006139;28;20054;-66
2022/07/06 01:32:42;;;;;;;4.57;2.95;;;;;;;;;;5008291;28;20034;-67
2022/07/06 01:35:13;;;;;;;5.30;2.50;;;12.30;99.90;;;;;;5007512;28;20033;-68
2022/07/06 01:37:39;;;;;;;6.15;2.83;;;;;;;;;;5008728;28;20092;-69
2022/07/06 01:40:06;;;;;;;7.07;2.55;;;12.20;99.90;;;;;;5008205;28;20022;-68
2022/07/06 01:42:33;;;;;;;4.63;2.05;;;12.10;99.90;;;;;;5008708;28;20220;-68
2022/07/06 01:44:59;;;;;;;4.68;2.63;;;;;;;;;;5006946;28;20053;-66
2022/07/06 01:47:25;;;;;;;5.30;2.40;;;12.20;99.90;;;;;;5006178;28;20026;-66
2022/07/06 01:49:51;;;;;;;4.45;2.03;;;12.10;99.90;;;;;;4990922;28;20022;-66
2022/07/06 01:52:17;;;;;;;5.63;2.08;;;;;;;;;;5008166;28;20025;-67
2022/07/06 01:54:43;;;;;;;3.75;2.08;;;12.10;99.90;;;;;;5005177;28;20105;-69
2022/07/06 01:57:08;;;;;;;3.72;2.30;;;12.10;99.90;;;;;;5008424;28;20033;-68
2022/07/06 01:59:34;;;;;;;6.55;2.55;;;11.90;99.90;;;;;;5008026;28;20026;-66
2022/07/06 02:01:59;;;;;;;1.85;1.55;;;12.10;99.90;;;;;;5007671;28;20034;-66
2022/07/06 02:04:26;;;;;;;5.72;1.80;;;;;;;;;;5008606;28;20014;-67
2022/07/06 02:06:51;;;;;;;5.20;1.95;;;12.10;99.90;;;;;;5008289;28;20022;-66
2022/07/06 02:09:17;;;;;;;4.53;2.60;;;;;;;;;;5006685;28;20028;-66
2022/07/06 02:11:43;;;;;;;4.40;2.25;;;12.10;99.90;;;;;;5008164;28;20416;-66
2022/07/06 02:14:09;;;;;;;5.22;2.20;;;12.10;99.90;;;;;;5008766;28;20404;-68
2022/07/06 02:16:35;;;;;;;5.95;2.10;;;12.00;99.90;;;;;;5007779;28;20051;-68
2022/07/06 02:19:01;;;;;;;3.47;1.80;;;11.90;99.90;;;;;;5004906;28;20384;-68
2022/07/06 02:21:26;;;;;;;4.53;1.92;;;12.00;99.90;;;;;;5008120;28;20122;-66
2022/07/06 02:23:52;;;;;;;3.58;2.17;;;;;;;;;;5008079;28;20391;-68
2022/07/06 02:26:18;;;;;;;12.50;3.28;;;11.80;99.90;;;;;;5003598;28;20341;-69
2022/07/06 02:28:46;;;;;;;4.85;2.78;;;;;;;;;;5006493;28;20033;-68
2022/07/06 02:31:13;;;;;;;4.53;2.70;;;12.00;99.90;;;;;;5005993;28;20037;-68
2022/07/06 02:33:38;;;;;;;7.80;3.17;;;11.90;99.90;;;;;;5007658;28;20053;-68
2022/07/06 02:36:04;;;;;;;8.80;2.88;;;11.90;99.90;;;;;;5007711;28;20053;-68
2022/07/06 02:38:29;;;;;;;9.20;3.20;;;11.80;99.90;;;;;;5008244;28;20033;-68
2022/07/06 02:40:55;;;;;;;4.45;3.13;;;11.90;99.90;;;;;;5007827;28;20030;-68
2022/07/06 02:43:20;;;;;;;4.47;3.05;;;11.70;99.90;;;;;;5006108;28;20026;-66
2022/07/06 02:45:46;;;;;;;7.97;3.00;;;11.70;99.90;;;;;;5005821;28;20391;-66
2022/07/06 02:48:11;;;;;;;7.45;3.25;;;11.70;99.90;;;;;;5010830;28;20418;-66
2022/07/06 02:50:37;;;;;;;5.30;3.17;;;11.70;99.90;;;;;;5008331;28;20033;-66
2022/07/06 02:53:03;;;;;;;5.03;4.05;;;;;;;;;;4993531;28;20102;-66
2022/07/06 02:55:28;;;;;;;4.45;3.20;;;11.70;99.90;;;;;;5011513;28;20030;-66
2022/07/06 02:57:54;;;;;;;7.55;3.20;;;11.60;99.90;;;;;;5010932;28;20541;-66
2022/07/06 03:00:20;;;;;;;4.15;2.50;;;11.90;99.90;;;;;;5011079;28;20033;-66
2022/07/06 03:02:45;;;;;;;4.82;3.28;;;11.60;99.90;;;;;;5004784;28;20367;-65
2022/07/06 03:05:11;;;;;;;7.13;3.35;;;11.60;99.90;;;;;;5006074;28;20580;-66
2022/07/06 03:07:37;;;;;;;5.82;2.83;;;12.00;99.90;;;;;;5011179;28;20037;-66
2022/07/06 03:10:03;;;;;;;4.82;3.00;;;;;;;;;;5002850;28;20045;-66
2022/07/06 03:12:29;;;;;;;6.10;3.85;;;;;;;;;;5011356;28;20036;-66
2022/07/06 03:14:55;;;;;;;6.35;2.65;;;;;;;;;;5010479;28;20042;-66
2022/07/06 03:17:21;;;;;;;4.15;2.78;;;11.70;99.90;;;;;;5009196;28;20033;-66
2022/07/06 03:19:46;;;;;;;4.07;2.40;;;11.80;99.90;;;;;;4989836;28;20058;-68
2022/07/06 03:22:12;;;;;;;5.95;3.83;;;11.90;99.90;;;;;;4991353;28;20038;-66
2022/07/06 03:24:38;;;;;;;5.47;2.80;;;12.10;99.90;;;;;;4991505;28;20037;-66
2022/07/06 03:27:04;;;;;;;3.75;2.60;;;12.10;99.90;;;;;;4990626;28;20029;-66
2022/07/06 03:29:29;;;;;;;4.00;1.90;;;12.20;99.90;;;;;;4991123;28;20030;-69
2022/07/06 03:31:55;;;;;;;5.25;2.30;;;12.30;99.90;;;;;;4991183;28;20078;-69
2022/07/06 03:34:20;;;;;;;5.28;2.92;;;12.40;99.90;;;;;;4991202;28;20061;-69
2022/07/06 03:36:46;;;;;;;6.18;2.65;;;;;;;;;;4987802;28;20049;-66
2022/07/06 03:39:12;;;;;;;7.65;2.85;;;12.20;99.90;;;;;;4991234;28;20075;-68
2022/07/06 03:41:37;;;;;;;4.35;2.38;;;;;;;;;;4991150;28;20061;-69
2022/07/06 03:44:03;;;;;;;9.43;2.92;;;12.50;99.90;;;;;;4990091;28;20498;-66
2022/07/06 03:46:29;;;;;;;6.88;2.78;;;12.50;99.90;;;;;;4991235;28;20431;-69
2022/07/06 03:48:55;;;;;;;4.32;2.83;;;12.60;99.90;;;;;;4990721;28;20041;-68
2022/07/06 03:51:20;;;;;;;7.15;2.47;;;12.70;99.90;;;;;;4985189;28;20162;-68
2022/07/06 03:53:46;;;;;;;11.23;2.40;;;12.80;99.90;;;;;;4990949;28;20035;-68
2022/07/06 03:56:29;;;;;;;6.38;2.70;;;12.90;99.90;;;;;;4987367;28;20042;-68
2022/07/06 03:58:56;;;;;;;5.90;2.33;;;12.80;99.90;;;;;;4989740;28;20030;-68
2022/07/06 04:01:22;;;;;;;5.20;2.53;;;12.70;99.90;;;;;;4987860;28;20042;-69
2022/07/06 04:03:48;;;;;;;4.25;2.60;;;13.00;99.90;;;;;;4989240;28;20066;-68
2022/07/06 04:06:14;;;;;;;8.00;3.30;;;13.00;99.90;;;;;;4990232;28;20025;-68
2022/07/06 04:08:39;;;;;;;4.45;2.60;;;12.90;99.90;;;;;;4990521;28;20030;-69
2022/07/06 04:11:05;;;;;;;3.22;2.60;;;13.10;99.90;;;;;;4986843;28;20031;-68
2022/07/06 04:13:31;;;;;;;3.92;2.55;;;;;;;;;;4990654;28;20352;-70
2022/07/06 04:15:57;;;;;;;6.82;3.28;;;13.10;99.90;;;;;;4990399;28;20018;-68
2022/07/06 04:18:23;;;;;;;8.75;3.33;;;13.10;99.90;;;;;;4991342;28;20360;-68
2022/07/06 04:20:48;;;;;;;5.38;2.58;;;12.70;99.90;;;;;;5009913;28;20018;-68
2022/07/06 04:23:14;;;;;;;3.08;1.83;;;;;;;;;;5007028;28;20026;-68
2022/07/06 04:25:40;;;;;;;3.90;2.85;;;;;;;;;;5009375;28;20488;-68
2022/07/06 04:28:06;;;;;;;4.13;2.42;;;;;;;;;;5007998;28;20072;-68
2022/07/06 04:30:32;;;;;;;3.47;2.83;;;12.40;99.90;;;;;;4991924;28;20069;-68
2022/07/06 04:32:58;;;;;;;11.63;3.25;;;;;;;;;;5009512;28;20046;-68
2022/07/06 04:35:23;;;;;;;8.65;3.92;;;12.50;99.90;;;;;;5009945;28;20049;-68
2022/07/06 04:37:49;;;;;;;3.78;3.08;;;12.60;99.90;;;;;;5009589;28;20439;-68
2022/07/06 04:40:15;;;;;;;4.72;2.75;;;12.50;99.90;;;;;;5008341;28;20544;-68
2022/07/06 04:42:40;;;;;;;5.50;3.88;;;12.60;99.90;;;;;;5009471;28;20038;-68
2022/07/06 04:45:06;;;;;;;9.07;3.15;;;12.30;99.90;;;;;;5008011;28;20068;-68
2022/07/06 04:47:32;;;;;;;3.97;2.72;;;12.40;99.90;;;;;;5009629;28;20036;-68
2022/07/06 04:49:58;;;;;;;4.72;3.28;;;;;;;;;;5009219;28;20490;-68
2022/07/06 04:52:23;;;;;;;5.13;2.80;;;12.40;99.90;;;;;;5009157;28;20021;-68
2022/07/06 04:54:49;;;;;;;5.95;3.55;;;;;;;;;;5005770;28;20025;-68
2022/07/06 04:57:15;;;;;;;4.10;3.65;;;12.30;99.90;;;;;;5002926;28;20530;-68
2022/07/06 04:59:40;;;;;;;3.65;3.00;;;12.40;99.90;;;;;;5006550;28;20403;-68
2022/07/06 05:02:06;;;;;;;8.10;3.53;;;12.40;99.90;;;;;;5006637;28;20138;-68
2022/07/06 05:04:32;;;;;;;5.72;3.40;;;12.50;99.90;;;;;;5008292;28;20032;-68
2022/07/06 05:06:58;;;;;;;6.22;3.65;;;12.60;99.90;;;;;;5005777;28;20044;-68
2022/07/06 05:09:24;;;;;;;4.30;3.28;;;12.60;99.90;;;;;;5005878;28;20333;-68
2022/07/06 05:11:49;;;;;;;7.45;4.20;;;12.60;99.90;;;;;;5006515;28;20036;-68
2022/07/06 05:14:15;;;;;;;7.68;3.72;;;13.10;99.90;;;;;;5009140;28;20025;-68
2022/07/06 05:16:40;;;;;;;10.07;3.60;;;13.20;99.90;;;;;;5007765;28;20034;-68
2022/07/06 05:19:06;;;;;;;4.75;3.50;;;13.30;99.90;;;;;;5008653;28;20088;-68
2022/07/06 05:21:31;;;;;;;5.05;3.85;;;13.60;99.90;;;;;;5008785;28;20040;-68
2022/07/06 05:23:57;;;;;;;5.28;3.15;;;;;;;;;;5008416;28;20321;-68
2022/07/06 05:26:23;;;;;;;3.72;3.42;;;13.70;99.90;;;;;;5009137;28;20025;-68
2022/07/06 05:28:49;;;;;;;10.60;3.78;;;;;;;;;;5004577;28;20104;-68
2022/07/06 05:31:14;;;;;;;4.85;2.75;;;14.10;99.90;;;;;;5008732;28;20200;-68
2022/07/06 05:33:40;;;;;;;5.47;3.20;;;14.10;99.90;;;;;;5008948;28;20064;-68
2022/07/06 05:36:05;;;;;;;3.58;2.22;;;14.10;99.90;;;;;;5002103;28;20034;-68
2022/07/06 05:38:31;;;;;;;2.70;1.95;;;14.60;99.90;;;;;;5007601;28;20052;-68
2022/07/06 05:40:57;;;;;;;3.53;2.17;;;;;;;;;;5008268;28;20034;-68
2022/07/06 05:43:22;;;;;;;5.68;1.90;;;14.90;99.90;;;;;;5008577;28;20188;-66
2022/07/06 05:45:48;;;;;;;3.17;1.17;;;15.00;99.90;;;;;;5003709;28;20054;-67
2022/07/06 05:50:57;;;;;;;3.72;1.50;;;15.20;99.90;;;;;;5008233;28;20029;-66
2022/07/06 05:53:23;;;;;;;1.88;1.13;;;15.40;99.90;;;;;;5004036;28;20030;-67
2022/07/06 05:55:48;;;;;;;3.05;1.15;;;15.50;99.90;;;;;;5005414;28;20026;-67
2022/07/06 05:58:14;;;;;;;2.90;1.13;;;15.40;99.90;;;;;;4999324;28;20498;-66
2022/07/06 06:00:40;;;;;;;3.13;1.65;;;15.40;99.90;;;;;;5013595;28;20036;-67
2022/07/06 06:03:05;;;;;;;2.55;1.20;;;15.50;99.90;;;;;;5009815;28;20030;-67
2022/07/06 06:05:31;;;;;;;3.55;1.33;;;15.60;99.90;;;;;;5001625;28;20376;-67
2022/07/06 06:07:57;;;;;;;2.65;0.80;;;15.80;99.90;;;;;;5006065;28;20033;-67
2022/07/06 06:10:23;;;;;;;5.13;0.95;;;15.70;99.90;;;;;;5005134;28;20034;-66
2022/07/06 06:12:49;;;;;;;1.52;1.00;;;15.60;99.90;;;;;;5007898;28;20037;-66
2022/07/06 06:15:15;;;;;;;2.85;0.90;;;15.80;99.90;;;;;;5009609;28;20359;-66
2022/07/06 06:17:41;;;;;;;4.43;0.82;;;15.80;99.90;;;;;;5008595;28;20101;-67
2022/07/06 06:20:09;;;;;;;3.75;0.70;;;15.80;99.90;;;;;;5008279;28;20439;-67
2022/07/06 06:22:52;;;;;;;9.32;1.08;;;15.90;99.90;;;;;;5010361;28;20060;-67
2022/07/06 06:25:32;;;;;;;3.17;0.68;;;15.60;99.90;;;;;;5009173;28;20130;-67
2022/07/06 06:27:58;;;;;;;4.45;0.80;;;15.70;99.90;;;;;;5011377;28;20459;-66
2022/07/06 06:30:24;;;;;;;3.85;0.68;;;15.90;99.90;;;;;;5011434;28;20029;-66
2022/07/06 06:32:49;;;;;;;3.03;1.00;;;16.20;99.90;;;;;;5011671;28;20068;-67
2022/07/06 06:35:15;;;;;;;2.75;0.80;;;16.30;99.90;;;;;;5011750;28;20022;-67
2022/07/06 06:37:41;;;;;;;4.43;0.93;;;16.10;99.90;;;;;;4993597;28;20018;-67
2022/07/06 06:40:08;;;;;;;3.25;0.57;;;16.20;99.90;;;;;;5011657;28;20018;-66
2022/07/06 06:42:37;;;;;;;1.15;0.40;;;16.30;99.90;;;;;;5011582;28;20034;-67
2022/07/06 06:45:03;;;;;;;2.78;0.57;;;16.40;99.90;;;;;;5012039;28;20089;-67
2022/07/06 06:47:29;;;;;;;4.28;0.95;;;16.20;99.90;;;;;;5026512;28;20033;-67
2022/07/06 06:49:54;;;;;;;1.55;0.82;;;16.20;99.90;;;;;;5012020;28;20041;-67
2022/07/06 06:52:20;;;;;;;2.53;0.40;;;16.60;99.90;;;;;;5011623;28;20125;-67
2022/07/06 06:54:45;;;;;;;4.18;0.52;;;16.70;99.90;;;;;;5012333;28;20021;-69
2022/07/06 06:57:11;;;;;;;3.33;0.73;;;16.40;99.90;;;;;;5012429;28;20065;-67
2022/07/06 06:59:37;;;;;;;2.38;0.50;;;16.70;99.90;;;;;;5011414;28;20026;-67
2022/07/06 07:02:02;;;;;;;3.65;0.50;;;16.30;99.90;;;;;;5011555;28;20045;-67
2022/07/06 07:04:29;;;;;;;2.58;0.60;;;16.40;99.90;;;;;;5011663;28;20056;-67
2022/07/06 07:06:55;;;;;;;1.00;0.40;;;16.50;99.90;;;;;;5011223;28;20034;-67
2022/07/06 07:09:20;;;;;;;3.22;0.40;;;16.50;99.90;;;;;;5011504;28;20032;-67
2022/07/06 07:11:46;;;;;;;3.55;0.50;;;16.50;99.90;;;;;;5011386;28;20324;-67
2022/07/06 07:14:11;;;;;;;5.28;0.77;;;16.60;99.90;;;;;;5011297;28;20128;-67
2022/07/06 07:16:36;;;;;;;4.65;0.43;;;16.50;99.90;;;;;;5011339;28;20447;-67
2022/07/06 07:19:02;;;;;;;3.05;0.30;;;16.50;99.90;;;;;;5011285;28;20145;-67
2022/07/06 07:21:27;;;;;;;1.80;0.60;;;16.60;99.90;;;;;;5011033;28;20053;-66
2022/07/06 07:23:53;;;;;;;4.35;0.50;;;16.80;99.60;;;;;;5011405;28;20029;-67
2022/07/06 07:26:18;;;;;;;4.57;0.40;;;17.10;99.90;;;;;;5011322;28;20037;-67
2022/07/06 07:28:44;;;;;;;4.50;0.65;;;16.90;99.40;;;;;;5010978;28;20105;-67
2022/07/06 07:31:09;;;;;;;3.80;0.60;;;16.80;99.90;;;;;;5011219;28;20360;-67
2022/07/06 07:33:35;;;;;;;1.85;0.40;;;17.00;99.90;;;;;;5010016;28;20049;-67
2022/07/06 07:36:00;;;;;;;2.53;0.93;;;17.10;99.90;;;;;;5010894;28;20018;-67
2022/07/06 07:38:26;;;;;;;3.60;0.50;;;17.10;98.80;;;;;;5011397;28;20034;-67
2022/07/06 07:40:54;;;;;;;3.60;0.45;;;17.40;99.90;;;;;;5011041;28;20053;-67
2022/07/06 07:43:19;;;;;;;3.67;0.47;;;17.30;98.40;;;;;;5010885;28;20042;-67
2022/07/06 07:45:47;;;;;;;2.92;0.45;;;17.50;97.70;;;;;;5011150;28;20044;-67
2022/07/06 07:48:12;;;;;;;2.95;0.40;;;17.40;97.70;;;;;;5011125;28;20112;-67
2022/07/06 07:50:38;;;;;;;1.48;0.38;;;17.60;99.90;;;;;;5010381;28;20488;-67
2022/07/06 07:53:03;;;;;;;1.85;0.85;;;17.80;99.90;;;;;;5010642;28;20022;-67
2022/07/06 07:55:29;;;;;;;2.63;0.43;;;17.70;96.90;;;;;;5010982;28;20037;-67
2022/07/06 07:57:54;;;;;;;1.88;0.30;;;17.80;96.70;;;;;;5010473;28;20026;-67
2022/07/06 08:00:21;;;;;;;6.05;0.47;;;18.00;96.60;;;;;;5010564;28;20112;-72
2022/07/06 08:02:47;;;;;;;1.02;0.25;;;18.10;96.30;;;;;;5010261;28;20073;-72
2022/07/06 08:05:15;;;;;;;1.45;0.40;;;;;;;;;;5009828;28;20123;-72
2022/07/06 08:07:41;;;;;;;0.35;0.28;;;18.50;94.50;;;;;;5010295;28;20029;-71
2022/07/06 08:10:07;;;;;;;1.48;0.40;;;18.60;94.70;;;;;;5010249;28;20025;-71
2022/07/06 08:12:33;;;;;;;3.53;0.20;;;18.40;93.80;;;;;;5010240;28;20030;-72
2022/07/06 08:14:58;;;;;;;1.02;0.52;;;18.40;93.60;;;;;;5009999;28;20391;-70
2022/07/06 08:17:24;;;;;;;1.98;0.32;;;18.50;93.30;;;;;;5010396;28;20030;-72
2022/07/06 08:19:50;;;;;;;3.20;0.30;;;18.70;93.10;;;;;;5009793;28;20503;-72
2022/07/06 08:22:15;;;;;;;1.40;0.30;;;18.90;92.70;;;;;;5010121;28;20029;-73
2022/07/06 08:24:41;;;;;;;4.72;0.60;;;18.60;92.40;;;;;;5010179;28;20356;-72
2022/07/06 08:27:07;;;;;;;2.97;0.40;;;19.00;92.50;;;;;;5009980;28;20053;-72
2022/07/06 08:29:32;;;;;;;2.10;0.73;;;18.80;92.50;;;;;;5010608;28;20451;-72
2022/07/06 08:31:58;;;;;;;2.08;0.30;;;19.00;92.70;;;;;;5009466;28;20057;-71
2022/07/06 08:34:23;;;;;;;2.17;0.22;;;19.00;92.50;;;;;;5009995;28;20041;-72
2022/07/06 08:36:49;;;;;;;1.65;0.20;;;19.10;92.10;;;;;;5009728;28;20024;-72
2022/07/06 08:39:15;;;;;;;0.95;0.20;;;19.30;91.70;;;;;;5009782;28;20029;-72
2022/07/06 08:41:47;;;;;;;1.60;0.30;;;19.00;91.40;;;;;;4991874;28;20075;-71
2022/07/06 08:44:14;;;;;;;1.55;0.40;;;19.40;91.60;;;;;;5009397;28;20036;-71
2022/07/06 08:46:40;;;;;;;1.40;0.57;;;19.10;91.20;;;;;;5009119;28;20495;-71
2022/07/06 08:49:13;;;;;;;4.53;0.40;;;19.30;91.70;;;;;;5009410;28;20025;-71
2022/07/06 08:51:40;;;;;;;0.90;0.20;;;18.80;92.00;;;;;;5009512;28;20041;-71
2022/07/06 08:54:07;;;;;;;1.52;0.30;;;18.90;91.20;;;;;;5008090;28;20106;-71
2022/07/06 08:56:32;;;;;;;4.03;0.75;;;19.00;90.80;;;;;;5006780;28;20309;-70
2022/07/06 08:58:59;;;;;;;0.65;0.40;;;19.10;90.40;;;;;;5003801;28;20163;-71
2022/07/06 09:01:25;;;;;;;3.83;0.52;;;19.40;90.10;;;;;;5007352;28;20018;-71
2022/07/06 09:03:51;;;;;;;2.25;0.30;;;20.00;88.10;;;;;;5008804;28;20100;-73
2022/07/06 09:06:25;;;;;;;3.10;0.25;;;19.40;87.20;;;;;;5008863;28;20022;-71
2022/07/06 09:08:55;;;;;;;2.92;0.28;;;19.60;85.60;;;;;;4990866;28;20052;-71
2022/07/06 09:11:27;;;;;;;1.55;0.30;;;19.60;86.80;;;;;;5008866;28;20041;-71
2022/07/06 09:13:53;;;;;;;0.85;0.20;;;19.50;84.70;;;;;;5008296;28;20176;-71
2022/07/06 09:16:28;;;;;;;2.28;0.30;;;19.30;85.10;;;;;;5008311;28;20164;-71
2022/07/06 09:18:54;;;;;;;0.30;0.20;;;19.30;86.20;;;;;;5008476;28;20555;-71
2022/07/06 09:21:25;;;;;;;0.90;0.22;;;19.20;85.80;;;;;;5008503;28;20160;-71
2022/07/06 09:23:56;;;;;;;0.25;0.20;;;19.30;85.90;;;;;;5008088;28;20050;-71
2022/07/06 09:26:23;;;;;;;0.52;0.20;;;19.40;85.90;;;;;;5008540;28;20026;-71
2022/07/06 09:28:49;;;;;;;0.77;0.20;;;19.50;85.40;;;;;;5008091;28;20052;-71
2022/07/06 09:31:15;;;;;;;2.35;0.30;;;19.70;84.80;;;;;;5006680;28;20018;-71
2022/07/06 09:34:05;;;;;;;1.02;0.10;;;19.90;84.40;;;;;;5006835;28;20390;-71
2022/07/06 09:36:37;;;;;;;2.63;0.17;;;20.00;82.90;;;;;;5008585;28;20105;-71
2022/07/06 09:39:27;;;;;;;0.50;0.20;;;19.90;83.10;;;;;;5008373;28;20021;-71
2022/07/06 09:41:54;;;;;;;0.20;0.15;;;20.00;81.70;;;;;;4997313;28;20034;-71
2022/07/06 09:44:31;;;;;;;0.73;0.20;;;20.00;82.40;;;;;;5008366;28;20029;-71
2022/07/06 09:46:59;;;;;;;1.55;0.20;;;19.60;80.30;;;;;;5008597;28;20034;-71
2022/07/06 09:49:25;;;;;;;2.97;0.20;;;20.00;80.00;;;;;;5004767;28;20097;-71
2022/07/06 09:51:56;;;;;;;2.15;0.20;;;20.20;79.40;;;;;;5008144;28;20498;-71
2022/07/06 09:54:22;;;;;;;0.75;0.20;;;20.20;78.30;;;;;;5018910;28;20029;-71
2022/07/06 09:56:51;;;;;;;1.00;0.20;;;20.50;79.70;;;;;;5007544;28;20037;-71
2022/07/06 09:59:22;;;;;;;2.90;0.70;;;20.80;79.30;;;;;;5008062;28;20026;-71
2022/07/06 10:01:51;;;;;;;0.65;0.20;;;20.70;79.30;;;;;;5008158;28;20038;-71
2022/07/06 10:04:19;;;;;;;0.47;0.10;;;20.80;79.10;;;;;;5008450;28;20018;-71
2022/07/06 10:06:46;;;;;;;1.38;0.30;;;20.90;78.80;;;;;;5008319;28;20489;-71
2022/07/06 10:09:13;;;;;;;1.52;0.45;;;20.90;78.10;;;;;;4990862;28;20048;-71
2022/07/06 10:11:53;;;;;;;3.85;0.30;;;20.90;78.30;;;;;;5008543;28;20680;-71
2022/07/06 10:14:22;;;;;;;0.47;0.17;;;21.00;76.20;;;;;;4999710;28;20405;-71
2022/07/06 10:16:48;;;;;;;1.27;0.20;;;21.00;78.10;;;;;;5008453;28;20026;-71
2022/07/06 10:19:15;;;;;;;1.45;0.28;;;21.10;77.00;;;;;;5008112;28;20053;-72
2022/07/06 10:21:41;;;;;;;0.55;0.10;;;21.10;76.80;;;;;;5008272;28;20046;-71
2022/07/06 10:24:08;;;;;;;1.45;0.40;;;21.30;76.40;;;;;;5008371;28;20056;-71
2022/07/06 10:26:35;;;;;;;1.30;0.20;;;21.10;76.50;;;;;;5008316;28;20026;-71
2022/07/06 10:29:05;;;;;;;0.95;0.20;;;21.10;76.40;;;;;;5007563;28;20085;-71
2022/07/06 10:31:33;;;;;;;1.75;0.30;;;21.20;76.60;;;;;;5008783;28;20026;-71
2022/07/06 10:34:01;;;;;;;0.50;0.20;;;21.20;75.80;;;;;;5007830;28;20530;-71
2022/07/06 10:36:28;;;;;;;3.13;0.30;;;21.20;76.20;;;;;;5008548;28;20022;-71
2022/07/06 10:38:54;;;;;;;0.65;0.20;;;21.30;75.40;;;;;;5008120;28;20105;-71
2022/07/06 10:41:37;;;;;;;1.38;0.35;;;21.40;75.40;;;;;;5008027;28;20088;-71
2022/07/06 10:44:23;;;;;;;1.17;0.22;;;21.40;74.00;;;;;;5007570;28;20045;-71
2022/07/06 10:46:57;;;;;;;3.03;0.30;;;21.40;76.30;;;;;;4983689;28;20396;-71
2022/07/06 10:49:23;;;;;;;;;;;21.50;77.60;;;;;;5003948;28;20026;-71
2022/07/06 10:51:49;;;;;;;3.35;0.30;;;21.70;77.90;;;;;;4990520;28;19941;-71
2022/07/06 10:54:16;;;;;;;3.45;0.30;;;21.10;77.00;;;;;;5008032;28;20035;-71
2022/07/06 10:56:48;;;;;;;3.53;0.70;;;21.40;77.20;;;;;;5008221;28;20073;-71
2022/07/06 10:59:17;;;;;;;2.10;0.25;;;21.30;77.50;;;;;;5007597;28;20121;-71
2022/07/06 11:02:15;;;;;;;3.63;0.55;;;21.50;77.60;;;;;;5007977;28;20117;-71
2022/07/06 11:04:45;;;;;;;2.22;0.60;;;21.60;76.00;;;;;;5008041;28;20041;-71
2022/07/06 11:07:13;;;;;;;3.92;0.30;;;21.10;77.30;;;;;;5008343;28;20064;-71
2022/07/06 11:09:42;;;;;;;3.65;0.35;;;21.60;77.50;;;;;;5011301;28;20412;-71
2022/07/06 11:12:20;;;;;;;1.42;0.47;;;21.80;77.00;;;;;;5010978;28;20018;-71
2022/07/06 11:14:48;;;;;;;2.00;0.30;;;21.70;77.60;;;;;;5011350;28;20022;-71
2022/07/06 11:17:14;;;;;;;0.85;0.30;;;21.70;77.20;;;;;;5011330;28;20454;-71
2022/07/06 11:20:08;;;;;;;1.45;0.40;;;21.60;76.90;;;;;;5011274;28;20125;-71
2022/07/06 11:22:36;;;;;;;3.13;0.30;;;21.60;76.00;;;;;;5011245;28;20045;-71
2022/07/06 11:25:03;;;;;;;1.95;0.30;;;21.60;76.80;;;;;;5010946;28;20718;-71
2022/07/06 11:27:29;;;;;;;1.63;0.30;;;21.60;76.40;;;;;;5011021;28;20026;-71
2022/07/06 11:29:55;;;;;;;3.15;0.40;;;21.70;75.90;;;;;;5011139;28;20049;-71
2022/07/06 11:32:25;;;;;;;2.65;0.40;;;21.60;75.90;;;;;;5010906;28;20037;-71
2022/07/06 11:34:51;;;;;;;0.90;0.28;;;21.80;76.50;;;;;;5011187;28;20029;-71
2022/07/06 11:37:18;;;;;;;1.10;0.40;;;22.00;75.20;;;;;;5010878;28;20022;-71
2022/07/06 11:39:45;;;;;;;1.92;0.45;;;22.20;74.90;;;;;;5011285;28;20695;-71
2022/07/06 11:42:13;;;;;;;1.02;0.20;;;22.20;75.20;;;;;;5010200;28;20037;-71
2022/07/06 11:44:40;;;;;;;1.20;0.30;;;22.30;74.80;;;;;;5011156;28;20110;-71
2022/07/06 11:47:07;;;;;;;0.80;0.30;;;22.40;74.20;;;;;;5010569;28;20033;-71
2022/07/06 11:49:34;;;;;;;3.28;0.63;;;22.60;74.60;;;;;;5011015;28;20136;-71
2022/07/06 11:52:04;;;;;;;1.95;0.40;;;22.50;73.90;;;;;;4992947;28;20420;-71
2022/07/06 11:54:32;;;;;;;1.92;0.47;;;22.60;73.60;;;;;;5010964;28;20038;-71
2022/07/06 11:56:59;;;;;;;0.43;0.30;;;22.50;73.90;;;;;;5010285;28;20037;-71
2022/07/06 11:59:30;;;;;;;1.77;0.28;;;22.50;74.30;;;;;;5010606;28;20160;-71
2022/07/06 12:02:06;;;;;;;2.72;0.25;;;22.70;74.60;;;;;;5010878;28;20505;-71
2022/07/06 12:04:34;;;;;;;1.13;0.30;;;22.80;74.60;;;;;;5010618;28;20037;-72
2022/07/06 12:07:11;;;;;;;0.65;0.40;;;22.90;73.90;;;;;;5010370;28;20379;-72
2022/07/06 12:09:39;;;;;;;3.75;0.98;;;22.70;72.20;;;;;;5009963;28;20112;-71
2022/07/06 12:12:06;;;;;;;1.65;0.30;;;22.70;74.10;;;;;;5010129;28;20022;-71
2022/07/06 12:14:33;;;;;;;2.47;0.20;;;22.20;74.10;;;;;;5010737;28;20013;-72
2022/07/06 12:17:25;;;;;;;0.68;0.30;;;22.00;75.20;;;;;;5010096;28;20022;-71
2022/07/06 12:19:54;;;;;;;2.05;0.40;;;22.20;75.90;;;;;;5007310;28;20053;-72
2022/07/06 12:22:25;;;;;;;0.73;0.28;;;22.30;75.50;;;;;;5009947;28;20029;-71
2022/07/06 12:24:50;;;;;;;4.43;0.70;;;22.40;75.30;;;;;;5009613;28;20033;-71
2022/07/06 12:27:18;;;;;;;3.35;0.47;;;23.20;74.70;;;;;;5010127;28;20364;-72
2022/07/06 12:29:45;;;;;;;2.38;0.50;;;22.70;74.20;;;;;;5010011;28;20045;-71
2022/07/06 12:32:15;;;;;;;1.58;0.47;;;22.70;73.50;;;;;;5009932;28;20064;-71
2022/07/06 12:34:41;;;;;;;1.83;0.40;;;22.50;74.20;;;;;;5010148;28;20034;-71
2022/07/06 12:37:09;;;;;;;3.45;0.30;;;22.50;73.10;;;;;;5009686;28;20018;-71
2022/07/06 12:39:45;;;;;;;1.33;0.40;;;22.50;73.50;;;;;;5009609;28;20434;-71
2022/07/06 12:42:14;;;;;;;0.52;0.20;;;22.50;74.70;;;;;;5009665;28;20034;-71
2022/07/06 12:44:48;;;;;;;1.08;0.30;;;22.50;73.90;;;;;;5009836;28;20018;-71
2022/07/06 12:47:18;;;;;;;1.98;0.20;;;22.60;73.80;;;;;;5009795;28;20022;-71
2022/07/06 12:49:43;;;;;;;1.02;0.20;;;22.50;73.70;;;;;;5009650;28;20026;-71
2022/07/06 12:52:13;;;;;;;1.70;0.28;;;22.50;73.30;;;;;;5009760;28;20026;-72
2022/07/06 12:54:48;;;;;;;1.65;0.40;;;23.40;73.90;;;;;;5009152;28;20035;-71
2022/07/06 12:57:26;;;;;;;2.40;0.20;;;22.70;72.10;;;;;;5009542;28;20026;-71
2022/07/06 12:59:54;;;;;;;1.25;0.60;;;22.80;70.50;;;;;;5009508;28;20026;-71